»·PEaware :: N5337S KSNA-KSNA

N5337S :: KSNA-KSNA

FLIGHT INFORMATION

Flight Status: Arrived
Operator: Privately registered:
United States
More flights under this callsign
Pilot: John I. (28401)
Aircraft: PIPER PA-28 CHEROKEE ARCHER
(P28A)
More flights by this aircraft type
Origin: KSNA John Wayne-Orange Co
United States
Destination: KSNA John Wayne-Orange Co
United States
More flights between these airports :: More routes between these airports
Route: SLI
File this flight plan on PilotEdge
Remarks:
Altitude:
(Current/Filed)
3,000ft
Speed:
(Current/Filed)
0kts
Departed: 24-Mar-20 07:48 PM
Arrived: 24-Mar-20 08:07 PM
Distance/Time
Traveled:
0nm/0:19
Distance/Time
To Go:
Arrived

Flight Plot

Page will automatically refresh every two minutes.


Map Options




Map Legend


Flown Route
Filed Route
Departure Airport
Arrival Airport
Navaid (VOR, NDB)
Fix

Horizontal Profiles

Position Reports

Time Latitude Longitude Heading Altitude Ground
Speed
24-Mar-20 19:31 33.676082 -117.870907 219 59ft 0kts
24-Mar-20 19:32 33.676082 -117.870907 219 59ft 0kts
24-Mar-20 19:33 33.676082 -117.870907 219 59ft 0kts
24-Mar-20 19:34 33.676082 -117.870907 219 59ft 0kts
24-Mar-20 19:35 33.676082 -117.870907 219 59ft 0kts
24-Mar-20 19:36 33.676082 -117.870907 219 59ft 0kts
24-Mar-20 19:37 33.676082 -117.870907 219 59ft 0kts
24-Mar-20 19:38 33.676082 -117.870907 219 59ft 0kts
24-Mar-20 19:39 33.676082 -117.870907 219 59ft 0kts
24-Mar-20 19:40 33.675911 -117.870823 128 59ft 0kts
24-Mar-20 19:41 33.676678 -117.869695 27 59ft 8kts
24-Mar-20 19:42 33.679036 -117.868197 26 59ft 10kts
24-Mar-20 19:43 33.681269 -117.866584 101 59ft 2kts
24-Mar-20 19:44 33.681214 -117.866438 114 59ft 0kts
24-Mar-20 19:45 33.681214 -117.866438 114 59ft 0kts
24-Mar-20 19:46 33.681214 -117.866438 114 59ft 0kts
24-Mar-20 19:47 33.674517 -117.869580 217 247ft 77kts
24-Mar-20 19:48 33.663133 -117.895379 233 1278ft 99kts
24-Mar-20 19:49 33.663532 -117.922246 345 2400ft 113kts
24-Mar-20 19:50 33.695392 -117.928542 347 3058ft 121kts
24-Mar-20 19:51 33.728391 -117.934283 348 3013ft 118kts
24-Mar-20 19:52 33.761404 -117.937422 18 2922ft 127kts
24-Mar-20 19:53 33.791291 -117.917138 26 2964ft 121kts
24-Mar-20 19:54 33.820518 -117.896058 27 2995ft 118kts
24-Mar-20 19:55 33.847420 -117.872056 68 2963ft 123kts
24-Mar-20 19:56 33.855916 -117.832472 76 2971ft 123kts
24-Mar-20 19:57 33.864648 -117.792755 88 2984ft 122kts
24-Mar-20 19:58 33.839931 -117.782026 188 2955ft 104kts
24-Mar-20 19:59 33.812587 -117.785237 214 2804ft 93kts
24-Mar-20 20:00 33.788633 -117.800627 207 2520ft 98kts
24-Mar-20 20:01 33.765673 -117.812109 218 2092ft 89kts
24-Mar-20 20:02 33.744954 -117.826364 204 1574ft 86kts
24-Mar-20 20:03 33.723660 -117.839208 213 983ft 85kts
24-Mar-20 20:04 33.702580 -117.852111 208 545ft 85kts
24-Mar-20 20:05 33.684728 -117.863098 212 162ft 67kts
24-Mar-20 20:06 33.674137 -117.870583 294 59ft 12kts
24-Mar-20 20:07 33.675209 -117.871521 25 59ft 0kts
24-Mar-20 20:08 33.675209 -117.871522 25 59ft 0kts
24-Mar-20 20:09 33.675209 -117.871522 25 59ft 0kts
24-Mar-20 20:10 33.675209 -117.871522 25 59ft 0kts
24-Mar-20 20:11 33.675209 -117.871522 25 59ft 0kts
24-Mar-20 20:12 33.675209 -117.871522 25 59ft 0kts
24-Mar-20 20:13 33.675209 -117.871522 25 59ft 0kts
24-Mar-20 20:14 33.675209 -117.871522 25 59ft 0kts
24-Mar-20 20:15 33.675209 -117.871522 25 59ft 0kts
24-Mar-20 20:16 33.675209 -117.871522 25 59ft 0kts
24-Mar-20 20:17 33.675209 -117.871522 25 59ft 0kts
24-Mar-20 20:18 33.675209 -117.871522 25 59ft 0kts
24-Mar-20 20:19 33.675209 -117.871522 25 59ft 0kts
24-Mar-20 20:20 33.675209 -117.871522 25 59ft 0kts

Navigation Log

Ident Type
Flight plan parsing failed, navigation log unavailable